Skip Navigation Links
NOAA logo - Click to go to the NOAA homepage
NOAA's National Weather Service
Alaska Aviation Weather Unit
  NWS logo - Click to go to the NWS homepage
Left Navbar Graphic     21 AKDT = 05 GMT

   
NOAA is celebrating 200 years of science, service, and stewardship. Visit the NOAA 200th celebration Web site to learn more.
USA.gov is the U.S. Government's official Web portal to all Federal, state and local government Web resources and services.
Facebook
NWS on Facebook

Important Change Regarding the AAWU Web Presence

 

Over the last several months, the AAWU has been working to navigate its webpages to a nationally supported server. Security, as well as other needs, have necessitated the change.  In the process, we have made an effort to enhance the functionality of our website, as well as some of our products. As of June 27, 2017, aawu.arh.noaa.gov will be discontinued. The new AAWU web address is weather.gov/aawu. It is now live and will run in-parallel with the old site until it is discontinued. Please send any feedback or questions regarding the new webpages to nws.ar.aawu.webauthors@noaa.gov.  Thank you for your patience during this time of transition.
AAWU Home :: Display TAF Add Bookmark
METAR PAKP 242356Z AUTO 23009KT 10SM OVC075 16/00 A2998 RMK AO2
 SLP172 T01610000 10161 20111 58015=

METAR PAKP 250056Z AUTO 24011G20KT 10SM OVC070 16/M01 A2996 RMK AO2
     SLP166 T01561006=

METAR PAKP 250156Z AUTO 22013G18KT 10SM OVC080 17/M01 A2995 RMK AO2
     SLP161 T01721006=

METAR PAKP 250256Z AUTO 23013KT 10SM OVC080 16/M01 A2995 RMK AO2 SLP162
     T01561006 56010=

METAR PAKP 250356Z AUTO 23012G16KT 10SM OVC080 14/01 A2994 RMK AO2
     SLP159 T01440006=

METAR PAKP 250456Z AUTO 24010G15KT 10SM BKN080 15/01 A2993 RMK AO2
     SLP154 T01500006=


NOAA's National Weather Service
Alaska Aviation Weather Unit
6930 Sand Lake Road
Anchorage, AK 99502-1845
Disclaimer
Credits
Glossary
Privacy Policy
About Us
Career Opportunities
Contact AAWU Internet Services Site last modified: April, 17th 2012